createdAt,value
2022-11-15T00:01:27.695Z,98823.92
2022-11-15T00:02:48.167Z,98823.95
2022-11-15T00:04:08.845Z,98822.45
2022-11-15T00:05:29.284Z,98825.64
2022-11-15T00:06:49.740Z,98826.85
2022-11-15T00:08:10.875Z,98827.23
2022-11-15T00:09:31.475Z,98826.56
2022-11-15T00:11:00.273Z,98826.34
2022-11-15T00:12:20.922Z,98828.96
2022-11-15T00:13:41.823Z,98826.35
2022-11-15T00:15:02.214Z,98824.69
2022-11-15T00:16:23.049Z,98818.47
2022-11-15T00:17:43.244Z,98815.65
2022-11-15T00:19:03.778Z,98812.73
2022-11-15T00:20:24.236Z,98810.59
2022-11-15T00:21:44.566Z,98810.77
2022-11-15T00:23:05.875Z,98809.48
2022-11-15T00:24:26.265Z,98808.84
2022-11-15T00:25:46.561Z,98805.30
2022-11-15T00:27:08.149Z,98804.65
2022-11-15T00:28:28.741Z,98798.97
2022-11-15T00:29:49.106Z,98798.70
2022-11-15T00:31:14.488Z,98800.62
2022-11-15T00:32:35.027Z,98797.06
2022-11-15T00:33:55.189Z,98795.67
2022-11-15T00:35:15.759Z,98794.80
2022-11-15T00:36:35.913Z,98792.30
2022-11-15T00:37:56.235Z,98793.07
2022-11-15T00:39:16.597Z,98788.45
2022-11-15T00:40:37.142Z,98785.86
2022-11-15T00:41:57.676Z,98784.40
2022-11-15T00:43:18.159Z,98786.30
2022-11-15T00:44:38.655Z,98786.27
2022-11-15T00:45:59.384Z,98780.70
2022-11-15T00:47:19.487Z,98779.19
2022-11-15T00:48:39.689Z,98781.03
2022-11-15T00:50:00.049Z,98778.31
2022-11-15T00:51:20.669Z,98780.41
2022-11-15T00:52:41.298Z,98779.23
2022-11-15T00:54:01.826Z,98776.96
2022-11-15T00:55:22.094Z,98771.70
2022-11-15T00:56:42.603Z,98770.19
2022-11-15T00:58:03.178Z,98769.87
2022-11-15T00:59:24.134Z,98771.61
2022-11-15T01:00:44.561Z,98768.01
2022-11-15T01:02:05.052Z,98760.52
2022-11-15T01:03:25.706Z,98761.76
2022-11-15T01:04:46.223Z,98758.18
2022-11-15T01:06:07.712Z,98755.03
2022-11-15T01:07:28.235Z,98755.42
2022-11-15T01:08:48.890Z,98752.41
2022-11-15T01:10:10.139Z,98748.33
2022-11-15T01:11:30.279Z,98749.77
2022-11-15T01:12:50.936Z,98749.11
2022-11-15T01:14:12.252Z,98748.45
2022-11-15T01:15:32.748Z,98746.77
2022-11-15T01:16:53.293Z,98741.56
2022-11-15T01:18:13.702Z,98740.38
2022-11-15T01:19:34.256Z,98737.17
2022-11-15T01:20:54.660Z,98737.20
2022-11-15T01:22:15.266Z,98743.60
2022-11-15T01:23:36.310Z,98740.83
2022-11-15T01:24:56.903Z,98737.96
2022-11-15T01:26:17.391Z,98731.75
2022-11-15T01:27:37.846Z,98726.41
2022-11-15T01:28:58.202Z,98727.52
2022-11-15T01:30:18.675Z,98724.93
2022-11-15T01:31:39.182Z,98727.78
2022-11-15T01:32:59.526Z,98727.66
2022-11-15T01:34:19.814Z,98723.35
2022-11-15T01:35:41.364Z,98723.77
2022-11-15T01:37:02.296Z,98721.95
2022-11-15T01:38:23.643Z,98722.73
2022-11-15T01:39:44.303Z,98717.12
2022-11-15T01:41:05.260Z,98724.91
2022-11-15T01:42:25.850Z,98719.13
2022-11-15T01:43:50.118Z,98718.88
2022-11-15T01:45:16.282Z,98709.63
2022-11-15T01:46:39.589Z,98712.63
2022-11-15T01:48:00.258Z,98711.15
2022-11-15T01:49:23.526Z,98707.71
2022-11-15T01:50:43.731Z,98708.85
2022-11-15T01:52:10.025Z,98700.66
2022-11-15T01:53:33.235Z,98699.00
2022-11-15T01:55:02.840Z,98697.52
2022-11-15T01:56:28.828Z,98695.88
2022-11-15T01:57:56.135Z,98695.14
2022-11-15T01:59:16.958Z,98693.93
2022-11-15T02:00:37.543Z,98693.35
2022-11-15T02:01:58.237Z,98694.85
2022-11-15T02:03:18.924Z,98689.61
2022-11-15T02:04:44.560Z,98691.39
2022-11-15T02:06:06.536Z,98685.17
2022-11-15T02:07:29.430Z,98682.26
2022-11-15T02:08:51.796Z,98678.70
2022-11-15T02:10:18.272Z,98678.42
2022-11-15T02:11:38.853Z,98675.30
2022-11-15T02:13:02.938Z,98675.89
2022-11-15T02:14:28.796Z,98673.11
2022-11-15T02:16:14.570Z,98678.30
2022-11-15T02:17:37.686Z,98674.40
2022-11-15T02:19:30.463Z,98671.49
2022-11-15T02:21:28.097Z,98671.33
2022-11-15T02:29:44.166Z,98674.57
2022-11-15T02:31:16.107Z,98674.27
2022-11-15T02:32:47.523Z,98674.83
2022-11-15T02:34:36.355Z,98675.67
2022-11-15T02:36:15.959Z,98676.17
2022-11-15T02:37:52.192Z,98673.13
2022-11-15T02:39:29.538Z,98669.65
2022-11-15T02:41:09.622Z,98667.12
2022-11-15T02:42:55.395Z,98665.30
2022-11-15T02:44:27.874Z,98666.57
2022-11-15T02:45:57.361Z,98666.17
2022-11-15T02:47:19.670Z,98665.80
2022-11-15T02:48:41.801Z,98663.36
2022-11-15T02:50:11.927Z,98664.40
2022-11-15T02:51:34.552Z,98663.39
2022-11-15T02:53:25.138Z,98658.70
2022-11-15T02:54:58.258Z,98657.07
2022-11-15T02:56:18.843Z,98657.47
2022-11-15T02:58:17.291Z,98653.59
2022-11-15T03:00:08.997Z,98646.70
2022-11-15T03:01:59.687Z,98645.17
2022-11-15T03:04:02.771Z,98643.48
2022-11-15T03:05:45.339Z,98644.16
2022-11-15T03:07:19.976Z,98644.17
2022-11-15T03:08:55.964Z,98638.27
2022-11-15T03:10:31.789Z,98643.70
2022-11-15T03:12:02.334Z,98642.21
2022-11-15T03:13:39.139Z,98643.09
2022-11-15T03:15:10.341Z,98641.29
2022-11-15T03:17:00.752Z,98640.95
2022-11-15T03:18:35.247Z,98636.69
2022-11-15T03:20:00.044Z,98640.02
2022-11-15T03:21:23.102Z,98636.84
2022-11-15T03:22:47.918Z,98638.73
2022-11-15T03:24:09.864Z,98637.99
2022-11-15T03:25:35.660Z,98640.01
2022-11-15T03:27:00.725Z,98637.77
2022-11-15T03:28:32.903Z,98637.95
2022-11-15T03:30:01.560Z,98636.38
2022-11-15T03:31:50.020Z,98635.65
2022-11-15T03:33:12.831Z,98631.48
2022-11-15T03:34:53.244Z,98629.08
2022-11-15T03:36:13.984Z,98621.33
2022-11-15T03:37:50.337Z,98624.17
2022-11-15T03:39:19.184Z,98626.27
2022-11-15T03:40:43.827Z,98629.73
2022-11-15T03:58:02.998Z,98611.84
2022-11-15T03:59:23.628Z,98607.61
2022-11-15T04:00:43.956Z,98610.86
2022-11-15T04:02:04.321Z,98611.28
2022-11-15T04:03:26.508Z,98612.25
2022-11-15T04:11:24.010Z,98607.16
2022-11-15T04:12:48.315Z,98602.23
2022-11-15T04:14:08.775Z,98599.04
2022-11-15T04:15:30.417Z,98602.44
2022-11-15T04:16:50.769Z,98601.92
2022-11-15T04:18:10.985Z,98597.62
2022-11-15T04:26:17.451Z,98586.25
2022-11-15T04:27:37.795Z,98586.20
2022-11-15T04:29:16.931Z,98582.68
2022-11-15T04:30:37.701Z,98582.66
2022-11-15T04:31:58.001Z,98577.66
2022-11-15T04:33:18.346Z,98578.80
2022-11-15T04:34:39.491Z,98575.05
2022-11-15T04:36:18.769Z,98575.86
2022-11-15T04:37:39.635Z,98568.25
2022-11-15T04:38:59.876Z,98564.18
2022-11-15T04:40:20.101Z,98564.05
2022-11-15T04:41:40.283Z,98566.84
2022-11-15T04:43:03.908Z,98559.63
2022-11-15T04:44:24.465Z,98561.16
2022-11-15T04:45:44.964Z,98559.75
2022-11-15T04:47:05.665Z,98562.66
2022-11-15T04:48:26.109Z,98559.91
2022-11-15T04:49:46.629Z,98560.46
2022-11-15T04:51:07.149Z,98558.79
2022-11-15T04:58:44.149Z,98556.55
2022-11-15T05:00:09.727Z,98556.86
2022-11-15T05:01:30.381Z,98559.02
2022-11-15T05:03:09.738Z,98555.34
2022-11-15T05:04:30.120Z,98547.34
2022-11-15T05:05:50.622Z,98550.77
2022-11-15T05:07:10.922Z,98548.32
2022-11-15T05:08:31.583Z,98552.67
2022-11-15T05:09:51.889Z,98547.24
2022-11-15T05:11:12.698Z,98551.67
2022-11-15T05:12:33.073Z,98550.40
2022-11-15T05:13:53.813Z,98550.52
2022-11-15T05:15:14.215Z,98549.52
2022-11-15T05:16:34.434Z,98553.09
2022-11-15T05:18:00.389Z,98554.88
2022-11-15T05:19:20.775Z,98555.78
2022-11-15T05:20:41.285Z,98557.48
2022-11-15T05:22:01.602Z,98556.89
2022-11-15T05:29:57.790Z,98553.91
2022-11-15T05:31:18.232Z,98557.92
2022-11-15T05:32:38.637Z,98551.66
2022-11-15T05:34:02.434Z,98550.46
2022-11-15T05:35:35.593Z,98553.93
2022-11-15T05:36:56.175Z,98555.92
2022-11-15T05:38:16.441Z,98556.38
2022-11-15T05:39:37.014Z,98551.35
2022-11-15T05:40:57.834Z,98547.47
2022-11-15T05:42:18.896Z,98546.41
2022-11-15T05:44:16.248Z,98546.98
2022-11-15T05:45:37.702Z,98543.11
2022-11-15T05:46:58.361Z,98543.48
2022-11-15T05:48:19.222Z,98541.63
2022-11-15T05:49:45.368Z,98543.15
2022-11-15T05:51:07.723Z,98537.90
2022-11-15T05:52:34.725Z,98536.77
2022-11-15T05:53:59.309Z,98536.17
2022-11-15T05:55:19.898Z,98537.77
2022-11-15T05:56:40.510Z,98533.77
2022-11-15T05:58:02.117Z,98537.44
2022-11-15T05:59:22.709Z,98538.70
2022-11-15T06:00:44.279Z,98530.45
2022-11-15T06:02:04.554Z,98535.77
2022-11-15T06:03:24.978Z,98533.75
2022-11-15T06:04:45.208Z,98530.13
2022-11-15T06:06:05.446Z,98528.94
2022-11-15T06:07:25.784Z,98529.22
2022-11-15T06:08:46.453Z,98527.15
2022-11-15T06:10:07.701Z,98531.88
2022-11-15T06:11:27.963Z,98530.20
2022-11-15T06:12:48.043Z,98529.33
2022-11-15T06:14:08.090Z,98526.05
2022-11-15T06:15:29.224Z,98525.92
2022-11-15T06:16:49.449Z,98526.60
2022-11-15T06:18:09.703Z,98523.46
2022-11-15T06:19:33.995Z,98521.17
2022-11-15T06:20:54.069Z,98527.90
2022-11-15T06:22:14.534Z,98527.67
2022-11-15T06:23:36.330Z,98531.63
2022-11-15T06:25:00.207Z,98529.09
2022-11-15T06:26:23.323Z,98528.77
2022-11-15T06:27:43.952Z,98532.46
2022-11-15T06:29:07.189Z,98528.34
2022-11-15T06:30:28.673Z,98531.26
2022-11-15T06:31:49.263Z,98529.37
2022-11-15T06:33:09.907Z,98526.89
2022-11-15T06:34:30.511Z,98524.02
2022-11-15T06:35:51.278Z,98526.77
2022-11-15T06:37:11.621Z,98527.74
2022-11-15T06:38:32.178Z,98530.29
2022-11-15T06:39:52.329Z,98528.80
2022-11-15T06:41:14.935Z,98528.18
2022-11-15T06:42:35.767Z,98524.78
2022-11-15T06:43:56.009Z,98523.27
2022-11-15T06:45:16.419Z,98523.55
2022-11-15T06:46:36.706Z,98527.46
2022-11-15T06:47:57.313Z,98525.09
2022-11-15T06:49:17.891Z,98523.79
2022-11-15T06:50:38.324Z,98523.84
2022-11-15T06:51:58.741Z,98520.09
2022-11-15T06:53:19.397Z,98521.24
2022-11-15T06:54:39.691Z,98525.76
2022-11-15T06:56:06.004Z,98526.88
2022-11-15T06:57:26.493Z,98526.77
2022-11-15T06:58:46.806Z,98530.29
2022-11-15T07:00:07.920Z,98524.55
2022-11-15T07:01:27.985Z,98522.61
2022-11-15T07:02:49.005Z,98524.38
2022-11-15T07:04:09.442Z,98531.02
2022-11-15T07:05:30.635Z,98529.23
2022-11-15T07:06:51.107Z,98532.17
2022-11-15T07:08:11.630Z,98532.48
2022-11-15T07:09:32.000Z,98530.83
2022-11-15T07:10:52.914Z,98534.14
2022-11-15T07:12:13.675Z,98530.90
2022-11-15T07:13:36.539Z,98527.50
2022-11-15T07:14:57.375Z,98531.02
2022-11-15T07:16:17.713Z,98531.94
2022-11-15T07:17:38.042Z,98531.11
2022-11-15T07:18:58.768Z,98533.79
2022-11-15T07:20:19.555Z,98529.13
2022-11-15T07:21:40.157Z,98527.60
2022-11-15T07:23:05.387Z,98529.23
2022-11-15T07:24:26.200Z,98527.70
2022-11-15T07:25:46.952Z,98529.38
2022-11-15T07:27:07.752Z,98530.37
2022-11-15T07:28:28.346Z,98535.20
2022-11-15T07:29:48.850Z,98536.40
2022-11-15T07:31:09.978Z,98530.33
2022-11-15T07:32:30.624Z,98534.42
2022-11-15T07:33:50.905Z,98535.95
2022-11-15T07:35:11.006Z,98535.05
2022-11-15T07:36:31.276Z,98537.19
2022-11-15T07:38:00.551Z,98538.14
2022-11-15T07:39:20.960Z,98532.58
2022-11-15T07:40:41.732Z,98532.91
2022-11-15T07:42:20.829Z,98533.06
2022-11-15T07:43:41.197Z,98530.43
2022-11-15T07:45:01.482Z,98530.72
2022-11-15T07:46:22.066Z,98534.78
2022-11-15T07:47:47.032Z,98536.52
2022-11-15T07:49:07.695Z,98535.19
2022-11-15T07:50:32.174Z,98529.29
2022-11-15T07:51:52.802Z,98530.60
2022-11-15T07:53:13.585Z,98531.17
2022-11-15T07:54:34.483Z,98525.82
2022-11-15T07:55:54.964Z,98525.00
2022-11-15T07:57:15.276Z,98524.80
2022-11-15T07:58:35.865Z,98525.30
2022-11-15T07:59:56.077Z,98525.95
2022-11-15T08:01:16.830Z,98525.75
2022-11-15T08:02:37.287Z,98522.65
2022-11-15T08:03:57.853Z,98517.58
2022-11-15T08:05:18.037Z,98517.53
2022-11-15T08:06:38.773Z,98516.92
2022-11-15T08:07:59.590Z,98516.02
2022-11-15T08:09:19.742Z,98513.69
2022-11-15T08:10:40.916Z,98511.48
2022-11-15T08:12:01.426Z,98512.03
2022-11-15T08:13:22.505Z,98512.88
2022-11-15T08:14:42.636Z,98506.73
2022-11-15T08:16:06.337Z,98508.98
2022-11-15T08:17:27.145Z,98506.29
2022-11-15T08:18:47.992Z,98497.96
2022-11-15T08:20:09.072Z,98495.79
2022-11-15T08:21:29.352Z,98499.99
2022-11-15T08:22:49.577Z,98495.56
2022-11-15T08:24:11.797Z,98495.02
2022-11-15T08:25:34.897Z,98498.70
2022-11-15T08:26:55.251Z,98498.92
2022-11-15T08:28:18.221Z,98496.45
2022-11-15T08:29:38.714Z,98496.54
2022-11-15T08:30:58.922Z,98497.77
2022-11-15T08:32:19.557Z,98498.05
2022-11-15T08:33:40.169Z,98499.10
2022-11-15T08:35:00.666Z,98494.33
2022-11-15T08:36:21.232Z,98493.94
2022-11-15T08:37:41.415Z,98490.25
2022-11-15T08:39:02.221Z,98493.48
2022-11-15T08:40:23.019Z,98490.90
2022-11-15T08:41:43.336Z,98490.02
2022-11-15T08:43:04.054Z,98494.48
2022-11-15T08:44:25.140Z,98495.64
2022-11-15T08:45:45.986Z,98492.92
2022-11-15T08:47:06.628Z,98494.08
2022-11-15T08:48:27.151Z,98485.91
2022-11-15T08:49:47.573Z,98488.27
2022-11-15T08:51:07.927Z,98486.34
2022-11-15T08:52:28.402Z,98482.02
2022-11-15T08:53:49.056Z,98479.66
2022-11-15T08:55:09.516Z,98483.44
2022-11-15T08:56:29.651Z,98479.67
2022-11-15T08:57:50.012Z,98483.17
2022-11-15T08:59:10.175Z,98480.01
2022-11-15T09:00:30.400Z,98478.38
2022-11-15T09:01:50.888Z,98476.52
2022-11-15T09:03:11.329Z,98475.95
2022-11-15T09:04:32.411Z,98469.87
2022-11-15T09:05:57.636Z,98472.66
2022-11-15T09:07:18.152Z,98474.69
2022-11-15T09:08:48.131Z,98470.28
2022-11-15T09:10:09.395Z,98474.08
2022-11-15T09:11:30.769Z,98474.84
2022-11-15T09:12:51.417Z,98472.88
2022-11-15T09:14:15.760Z,98472.45
2022-11-15T09:15:36.172Z,98472.88
2022-11-15T09:16:56.818Z,98471.52
2022-11-15T09:18:16.912Z,98470.75
2022-11-15T09:19:38.003Z,98469.89
2022-11-15T09:21:00.124Z,98470.80
2022-11-15T09:22:20.540Z,98463.61
2022-11-15T09:23:41.017Z,98465.70
2022-11-15T09:25:01.176Z,98467.13
2022-11-15T09:26:21.657Z,98463.77
2022-11-15T09:27:42.385Z,98461.02
2022-11-15T09:29:02.983Z,98465.12
2022-11-15T09:30:24.521Z,98468.41
2022-11-15T09:31:44.952Z,98463.42
2022-11-15T09:33:10.506Z,98463.02
2022-11-15T09:34:30.597Z,98463.63
2022-11-15T09:35:51.019Z,98462.87
2022-11-15T09:37:11.564Z,98461.93
2022-11-15T09:38:33.286Z,98460.00
2022-11-15T09:39:53.864Z,98459.09
2022-11-15T09:41:32.216Z,98455.02
2022-11-15T09:43:11.162Z,98458.58
2022-11-15T09:45:05.181Z,98455.77
2022-11-15T09:46:58.853Z,98455.09
2022-11-15T09:48:22.365Z,98452.98
2022-11-15T09:50:01.722Z,98447.50
2022-11-15T09:51:19.877Z,98446.92
2022-11-15T09:52:22.912Z,98445.02
2022-11-15T09:55:15.006Z,98438.21
2022-11-15T09:56:30.489Z,98436.94
2022-11-15T09:58:01.875Z,98432.94
2022-11-15T09:59:38.333Z,98428.17
2022-11-15T10:00:49.848Z,98420.27
2022-11-15T10:02:24.502Z,98419.95
2022-11-15T10:03:34.348Z,98418.58
2022-11-15T10:04:40.556Z,98416.66
2022-11-15T10:05:48.417Z,98415.52
2022-11-15T10:07:22.270Z,98413.80
2022-11-15T10:08:41.661Z,98408.04
2022-11-15T10:09:55.631Z,98414.40
2022-11-15T10:11:37.779Z,98413.52
2022-11-15T10:12:46.466Z,98414.27
2022-11-15T10:13:51.640Z,98410.16
2022-11-15T10:15:05.768Z,98414.21
2022-11-15T10:16:31.715Z,98406.85
2022-11-15T10:18:07.042Z,98401.85
2022-11-15T10:19:29.408Z,98402.27
2022-11-15T10:20:58.013Z,98404.92
2022-11-15T10:22:28.152Z,98407.30
2022-11-15T10:23:32.805Z,98407.74
2022-11-15T10:24:46.486Z,98405.34
2022-11-15T10:25:48.736Z,98404.77
2022-11-15T10:26:51.525Z,98404.10
2022-11-15T10:28:16.071Z,98399.19
2022-11-15T10:29:26.464Z,98404.44
2022-11-15T10:30:36.518Z,98400.76
2022-11-15T10:31:42.570Z,98400.36
2022-11-15T10:32:46.913Z,98398.92
2022-11-15T10:33:50.212Z,98394.43
2022-11-15T10:34:52.393Z,98390.67
2022-11-15T10:36:12.591Z,98392.42
2022-11-15T10:37:14.408Z,98389.01
2022-11-15T10:38:16.195Z,98391.30
2022-11-15T10:39:17.965Z,98388.23
2022-11-15T10:40:23.403Z,98383.89
2022-11-15T10:41:28.454Z,98382.08
2022-11-15T10:42:30.597Z,98379.88
2022-11-15T10:43:32.386Z,98378.50
2022-11-15T10:44:44.028Z,98376.36
2022-11-15T10:45:47.474Z,98375.59
2022-11-15T10:46:55.395Z,98376.16
2022-11-15T10:48:22.718Z,98374.08
2022-11-15T10:49:30.007Z,98371.38
2022-11-15T10:50:33.645Z,98372.31
2022-11-15T10:51:44.553Z,98373.40
2022-11-15T10:52:48.752Z,98369.19
2022-11-15T10:53:52.837Z,98364.83
2022-11-15T10:55:22.492Z,98363.95
2022-11-15T10:56:27.292Z,98361.14
2022-11-15T10:57:37.521Z,98356.45
2022-11-15T10:58:44.535Z,98357.55
2022-11-15T10:59:50.629Z,98351.27
2022-11-15T11:00:55.008Z,98350.20
2022-11-15T11:01:58.160Z,98348.38
2022-11-15T11:03:04.746Z,98351.11
2022-11-15T11:04:09.428Z,98351.88
2022-11-15T11:05:41.829Z,98352.86
2022-11-15T11:06:56.441Z,98353.96
2022-11-15T11:08:02.219Z,98349.80
2022-11-15T11:09:06.969Z,98348.38
2022-11-15T11:10:49.737Z,98344.70
2022-11-15T11:11:50.298Z,98342.20
2022-11-15T11:12:52.049Z,98344.88
2022-11-15T11:13:54.750Z,98345.07
2022-11-15T11:14:56.779Z,98347.15
2022-11-15T11:16:39.284Z,98344.27
2022-11-15T11:18:16.380Z,98343.73
2022-11-15T11:19:56.238Z,98344.60
2022-11-15T11:21:12.860Z,98343.48
2022-11-15T11:22:41.976Z,98339.70
2022-11-15T11:24:00.680Z,98339.27
2022-11-15T11:25:15.798Z,98339.65
2022-11-15T11:26:57.175Z,98335.50
2022-11-15T11:28:23.695Z,98334.85
2022-11-15T11:29:39.744Z,98338.86
2022-11-15T11:30:56.577Z,98340.23
2022-11-15T11:32:27.494Z,98333.50
2022-11-15T11:33:47.960Z,98334.19
2022-11-15T11:35:04.995Z,98328.63
2022-11-15T11:36:36.281Z,98321.77
2022-11-15T11:37:48.691Z,98320.02
2022-11-15T11:39:12.366Z,98319.52
2022-11-15T11:40:44.365Z,98318.16
2022-11-15T11:41:59.871Z,98317.58
2022-11-15T11:43:18.999Z,98320.61
2022-11-15T11:44:30.038Z,98321.61
2022-11-15T11:45:37.741Z,98317.48
2022-11-15T11:46:50.209Z,98319.09
2022-11-15T11:48:27.307Z,98317.23
2022-11-15T11:49:40.133Z,98314.50
2022-11-15T11:50:46.060Z,98308.53
2022-11-15T11:52:01.097Z,98310.86
2022-11-15T11:53:20.829Z,98312.02
2022-11-15T11:54:47.133Z,98311.51
2022-11-15T11:55:54.739Z,98309.66
2022-11-15T11:57:01.053Z,98312.11
2022-11-15T11:58:14.257Z,98313.80
2022-11-15T11:59:54.310Z,98311.09
2022-11-15T12:01:18.975Z,98310.03
2022-11-15T12:02:40.850Z,98310.54
2022-11-15T12:03:52.487Z,98309.65
2022-11-15T12:05:08.879Z,98312.67
2022-11-15T12:06:34.233Z,98309.89
2022-11-15T12:07:40.451Z,98306.59
2022-11-15T12:09:13.459Z,98305.50
2022-11-15T12:10:21.871Z,98300.39
2022-11-15T12:11:52.819Z,98297.36
2022-11-15T12:13:17.293Z,98291.39
2022-11-15T12:14:27.236Z,98291.21
2022-11-15T12:15:38.076Z,98288.00
2022-11-15T12:16:43.798Z,98289.00
2022-11-15T12:17:47.618Z,98288.94
2022-11-15T12:18:53.984Z,98288.30
2022-11-15T12:20:02.670Z,98285.92
2022-11-15T12:21:15.778Z,98281.11
2022-11-15T12:22:29.599Z,98279.52
2022-11-15T12:23:47.218Z,98280.27
2022-11-15T12:25:15.688Z,98279.14
2022-11-15T12:26:27.262Z,98271.59
2022-11-15T12:27:41.884Z,98276.45
2022-11-15T12:29:07.479Z,98279.52
2022-11-15T12:30:20.707Z,98272.66
2022-11-15T12:31:34.953Z,98273.98
2022-11-15T12:32:39.822Z,98272.21
2022-11-15T12:33:45.517Z,98272.26
2022-11-15T12:34:51.211Z,98271.18
2022-11-15T12:36:02.237Z,98268.63
2022-11-15T12:37:33.757Z,98263.56
2022-11-15T12:39:11.757Z,98263.09
2022-11-15T12:40:27.882Z,98265.08
2022-11-15T12:41:32.537Z,98262.90
2022-11-15T12:42:42.949Z,98268.09
2022-11-15T12:43:47.149Z,98270.40
2022-11-15T12:44:48.790Z,98267.70
2022-11-15T12:45:50.512Z,98265.11
2022-11-15T12:46:52.139Z,98261.70
2022-11-15T12:47:54.500Z,98257.45
2022-11-15T12:49:14.726Z,98256.31
2022-11-15T12:50:16.688Z,98253.66
2022-11-15T12:51:22.078Z,98255.10
2022-11-15T12:52:23.818Z,98255.81
2022-11-15T12:53:25.949Z,98250.20
2022-11-15T12:54:30.032Z,98248.60
2022-11-15T12:55:33.963Z,98250.64
2022-11-15T12:56:35.769Z,98251.36
2022-11-15T12:57:43.575Z,98254.96
2022-11-15T12:59:03.491Z,98252.40
2022-11-15T13:00:15.324Z,98255.27
2022-11-15T13:01:32.820Z,98254.90
2022-11-15T13:02:46.472Z,98254.38
2022-11-15T13:04:33.387Z,98250.39
2022-11-15T13:05:35.026Z,98249.23
2022-11-15T13:06:47.446Z,98250.29
2022-11-15T13:07:49.160Z,98246.62
2022-11-15T13:08:51.891Z,98244.87
2022-11-15T13:09:57.111Z,98250.09
2022-11-15T13:10:58.921Z,98251.61
2022-11-15T13:12:19.788Z,98249.35
2022-11-15T13:13:45.483Z,98248.09
2022-11-15T13:14:52.568Z,98245.70
2022-11-15T13:15:59.497Z,98241.86
2022-11-15T13:17:01.713Z,98239.61
2022-11-15T13:18:41.064Z,98244.00
2022-11-15T13:19:44.318Z,98244.05
2022-11-15T13:20:46.109Z,98246.19
2022-11-15T13:22:09.590Z,98243.95
2022-11-15T13:23:16.583Z,98242.29
2022-11-15T13:24:18.627Z,98239.27
2022-11-15T13:25:38.811Z,98240.27
2022-11-15T13:26:41.222Z,98233.98
2022-11-15T13:27:43.003Z,98231.92
2022-11-15T13:28:52.777Z,98234.84
2022-11-15T13:29:54.772Z,98232.08
2022-11-15T13:31:00.683Z,98233.84
2022-11-15T13:32:02.499Z,98238.30
2022-11-15T13:33:30.393Z,98236.80
2022-11-15T13:34:51.105Z,98232.91
2022-11-15T13:35:59.019Z,98238.47
2022-11-15T13:37:01.991Z,98236.94
2022-11-15T13:38:06.120Z,98235.97
2022-11-15T13:39:28.055Z,98234.14
2022-11-15T13:40:36.869Z,98235.89
2022-11-15T13:41:49.267Z,98236.65
2022-11-15T13:42:51.154Z,98233.61
2022-11-15T13:43:55.101Z,98231.34
2022-11-15T13:44:59.428Z,98229.69
2022-11-15T13:46:21.285Z,98228.35
2022-11-15T13:47:28.104Z,98228.42
2022-11-15T13:48:31.173Z,98223.11
2022-11-15T13:49:35.373Z,98224.20
2022-11-15T13:50:40.537Z,98221.48
2022-11-15T13:51:51.509Z,98220.85
2022-11-15T13:52:58.537Z,98220.21
2022-11-15T13:54:10.170Z,98217.33
2022-11-15T13:55:18.716Z,98227.08
2022-11-15T13:56:22.134Z,98223.94
2022-11-15T13:57:28.875Z,98221.41
2022-11-15T13:58:31.270Z,98222.16
2022-11-15T13:59:54.751Z,98220.80
2022-11-15T14:01:05.674Z,98222.88
2022-11-15T14:02:20.403Z,98223.48
2022-11-15T14:03:28.659Z,98220.05
2022-11-15T14:04:34.941Z,98223.73
2022-11-15T14:05:36.998Z,98218.90
2022-11-15T14:06:48.810Z,98219.09
2022-11-15T14:07:58.153Z,98217.05
2022-11-15T14:09:01.849Z,98213.65
2022-11-15T14:10:39.522Z,98213.37
2022-11-15T14:11:52.462Z,98214.59
2022-11-15T14:12:54.200Z,98211.48
2022-11-15T14:14:14.178Z,98214.26
2022-11-15T14:15:37.194Z,98215.91
2022-11-15T14:16:40.090Z,98214.80
2022-11-15T14:17:45.705Z,98210.95
2022-11-15T14:18:54.195Z,98213.11
2022-11-15T14:19:57.870Z,98211.04
2022-11-15T14:21:09.927Z,98211.21
2022-11-15T14:22:17.952Z,98214.43
2022-11-15T14:23:25.290Z,98210.06
2022-11-15T14:24:32.577Z,98211.63
2022-11-15T14:25:37.482Z,98209.03
2022-11-15T14:26:39.277Z,98209.55
2022-11-15T14:27:42.336Z,98207.40
2022-11-15T14:28:44.134Z,98209.83
2022-11-15T14:29:45.864Z,98208.81
2022-11-15T14:30:51.175Z,98206.13
2022-11-15T14:31:54.647Z,98207.97
2022-11-15T14:32:56.411Z,98206.13
2022-11-15T14:33:58.281Z,98204.03
2022-11-15T14:35:02.405Z,98203.06
2022-11-15T14:36:21.939Z,98205.42
2022-11-15T14:37:30.094Z,98201.76
2022-11-15T14:38:32.393Z,98198.55
2022-11-15T14:39:34.343Z,98203.83
2022-11-15T14:40:36.133Z,98206.14
2022-11-15T14:41:40.980Z,98207.63
2022-11-15T14:42:45.385Z,98203.23
2022-11-15T14:43:47.168Z,98199.48
2022-11-15T14:44:49.194Z,98194.86
2022-11-15T14:45:51.101Z,98191.96
2022-11-15T14:46:52.947Z,98193.38
2022-11-15T14:47:55.325Z,98195.98
2022-11-15T14:48:57.673Z,98191.41
2022-11-15T14:49:59.440Z,98191.64
2022-11-15T14:51:01.236Z,98187.17
2022-11-15T14:52:03.208Z,98184.64
2022-11-15T14:53:06.431Z,98186.56
2022-11-15T14:54:11.484Z,98182.20
2022-11-15T14:55:20.695Z,98181.18
2022-11-15T14:56:22.430Z,98185.30
2022-11-15T14:57:24.363Z,98182.43
2022-11-15T14:58:26.275Z,98179.36
2022-11-15T14:59:28.018Z,98176.77
2022-11-15T15:00:35.212Z,98180.11
2022-11-15T15:01:37.479Z,98180.10
2022-11-15T15:02:40.231Z,98178.96
2022-11-15T15:03:42.259Z,98176.96
2022-11-15T15:04:44.025Z,98171.90
2022-11-15T15:05:45.814Z,98172.69
2022-11-15T15:06:47.685Z,98173.11
2022-11-15T15:07:50.834Z,98167.14
2022-11-15T15:08:52.747Z,98173.16
2022-11-15T15:10:02.750Z,98171.42
2022-11-15T15:11:20.358Z,98174.77
2022-11-15T15:12:24.324Z,98176.16
2022-11-15T15:13:26.072Z,98171.84
2022-11-15T15:14:28.152Z,98173.53
2022-11-15T15:15:38.663Z,98174.11
2022-11-15T15:16:40.429Z,98172.20
2022-11-15T15:17:42.429Z,98175.15
2022-11-15T15:18:44.545Z,98174.16
2022-11-15T15:19:46.288Z,98175.31
2022-11-15T15:20:57.699Z,98176.45
2022-11-15T15:21:59.811Z,98176.30
2022-11-15T15:23:01.607Z,98175.95
2022-11-15T15:24:04.103Z,98174.58
2022-11-15T15:25:21.484Z,98172.38
2022-11-15T15:26:24.791Z,98171.61
2022-11-15T15:27:26.598Z,98173.67
2022-11-15T15:28:34.051Z,98172.65
2022-11-15T15:29:36.910Z,98173.40
2022-11-15T15:30:38.677Z,98175.26
2022-11-15T15:31:40.435Z,98178.98
2022-11-15T15:32:42.264Z,98178.64
2022-11-15T15:33:44.637Z,98175.17
2022-11-15T15:34:46.440Z,98174.89
2022-11-15T15:35:48.419Z,98173.39
2022-11-15T15:36:50.300Z,98175.79
2022-11-15T15:37:52.379Z,98177.15
2022-11-15T15:38:54.526Z,98178.78
2022-11-15T15:39:58.062Z,98174.81
2022-11-15T15:41:02.984Z,98176.88
2022-11-15T15:42:05.009Z,98176.75
2022-11-15T15:43:09.926Z,98177.48
2022-11-15T15:44:11.931Z,98176.02
2022-11-15T15:45:14.143Z,98177.23
2022-11-15T15:46:18.547Z,98176.35
2022-11-15T15:47:24.455Z,98175.89
2022-11-15T15:48:26.197Z,98178.98
2022-11-15T15:49:27.939Z,98172.46
2022-11-15T15:50:33.971Z,98178.56
2022-11-15T15:51:35.735Z,98176.61
2022-11-15T15:52:37.493Z,98176.77
2022-11-15T15:53:40.482Z,98178.68
2022-11-15T15:54:42.996Z,98176.25
2022-11-15T15:55:44.784Z,98179.04
2022-11-15T15:56:46.666Z,98179.14
2022-11-15T15:57:49.315Z,98176.87
2022-11-15T15:58:53.286Z,98173.58
2022-11-15T15:59:55.185Z,98173.59
2022-11-15T16:00:57.057Z,98170.67
2022-11-15T16:01:59.134Z,98170.30
2022-11-15T16:03:01.141Z,98169.91